CZ-0058 weather

Částkovice private ULM
Vysočina Region, Czechia

Public forecast

Using degrees Celsius for public forecast. Weather courtesy of forecast.io.

METAR (pilot weather report)

Closest report is Čáslav Air Base, 33.2 nm (61.4 km) NNE. Retrieved 2019/09/22 06:00 UTC (45 minutes ago):

LKCV 220600Z 06006KT CAVOK 10/05 Q1017 NOSIG RMK BLU BLU

TAF (pilot weather forecast)

Closest forecast is Čáslav Air Base, 33.2 nm (61.4 km) NNE. Retrieved 2019/09/22 06:05 UTC (40 minutes ago):

TAF LKCV 220500Z 2206/2306 08005KT CAVOK BECMG 2207/2209 14010KT TEMPO 2212/2218 14010G20KT BECMG 2218/2220 11005KT